Time;durP1;ratioP1;P1;durP2;ratioP2;P2;SDS_P1;SDS_P2;PMS_P1;PMS_P2;Temp;Humidity;BMP_temperature;BMP_pressure;BME280_temperature;BME280_humidity;BME280_pressure;Samples;Min_cycle;Max_cycle;Signal;HPM_P1;HPM_P2
2023/06/13 00:00:14;;;;;;;7.05;3.55;;;19.50;79.60;;;;;;6221958;23;20027;-64
2023/06/13 00:02:40;;;;;;;5.95;3.30;;;19.50;79.70;;;;;;6223985;23;20039;-64
2023/06/13 00:05:07;;;;;;;6.95;3.70;;;19.40;79.80;;;;;;6219944;23;20024;-64
2023/06/13 00:07:37;;;;;;;6.80;3.72;;;19.40;79.90;;;;;;6223993;23;20012;-64
2023/06/13 00:10:07;;;;;;;6.32;3.28;;;19.30;79.90;;;;;;6223147;23;20023;-64
2023/06/13 00:12:34;;;;;;;5.80;3.90;;;19.20;79.80;;;;;;6222305;23;20052;-64
2023/06/13 00:15:01;;;;;;;10.48;3.63;;;19.20;80.10;;;;;;6224147;23;20016;-64
2023/06/13 00:17:29;;;;;;;5.38;3.55;;;19.10;80.30;;;;;;6221335;23;20059;-64
2023/06/13 00:19:56;;;;;;;8.00;4.00;;;19.10;80.80;;;;;;6223819;23;20015;-64
2023/06/13 00:22:24;;;;;;;5.78;3.40;;;19.00;80.80;;;;;;6219798;23;20059;-64
2023/06/13 00:24:50;;;;;;;6.43;4.00;;;18.90;80.60;;;;;;6223046;23;20068;-65
2023/06/13 00:27:15;;;;;;;5.70;4.07;;;18.90;80.80;;;;;;6223013;23;20043;-64
2023/06/13 00:29:41;;;;;;;6.72;4.28;;;18.80;80.70;;;;;;6222237;23;20020;-64
2023/06/13 00:32:07;;;;;;;11.02;4.60;;;18.90;80.40;;;;;;6223289;23;20021;-64
2023/06/13 00:34:33;;;;;;;7.07;3.97;;;18.80;80.60;;;;;;6221617;23;20028;-64
2023/06/13 00:37:03;;;;;;;9.00;4.00;;;18.80;80.60;;;;;;6223498;23;20028;-63
2023/06/13 00:39:29;;;;;;;6.82;4.60;;;18.80;80.50;;;;;;6221277;23;20021;-64
2023/06/13 00:41:54;;;;;;;6.20;4.30;;;18.80;81.20;;;;;;6223391;23;20072;-64
2023/06/13 00:44:23;;;;;;;6.45;4.43;;;18.80;80.70;;;;;;6222886;23;20017;-64
2023/06/13 00:46:49;;;;;;;8.13;4.95;;;18.70;80.80;;;;;;6222361;23;20032;-63
2023/06/13 00:49:15;;;;;;;7.55;4.75;;;18.70;80.50;;;;;;6223899;23;20346;-64
2023/06/13 00:51:44;;;;;;;9.18;5.18;;;18.80;80.50;;;;;;6221545;23;20064;-64
2023/06/13 00:54:13;;;;;;;7.85;5.18;;;18.70;80.80;;;;;;6223400;23;20012;-63
2023/06/13 00:56:41;;;;;;;6.22;4.05;;;18.70;80.60;;;;;;6221174;23;20020;-64
2023/06/13 00:59:08;;;;;;;9.95;4.90;;;18.70;80.50;;;;;;6223102;23;20021;-63
2023/06/13 01:01:34;;;;;;;8.35;5.47;;;18.70;80.60;;;;;;6222849;23;20024;-64
2023/06/13 01:04:00;;;;;;;8.20;4.80;;;18.60;80.90;;;;;;6220286;23;20061;-63
2023/06/13 01:06:28;;;;;;;8.63;5.28;;;18.50;80.60;;;;;;6223124;23;20016;-64
2023/06/13 01:09:00;;;;;;;8.18;5.30;;;18.60;81.10;;;;;;6221001;23;20090;-64
2023/06/13 01:11:44;;;;;;;9.57;5.47;;;18.50;81.00;;;;;;6223003;23;20064;-64
2023/06/13 01:14:24;;;;;;;12.23;5.35;;;18.50;81.40;;;;;;6221872;23;20031;-64
2023/06/13 01:16:56;;;;;;;9.60;5.00;;;18.50;81.20;;;;;;6221716;23;20027;-64
2023/06/13 01:19:40;;;;;;;7.90;4.90;;;18.40;81.30;;;;;;6222988;23;20055;-64
2023/06/13 01:22:08;;;;;;;7.68;5.03;;;18.40;81.60;;;;;;6218766;23;20020;-64
2023/06/13 01:24:41;;;;;;;7.55;5.88;;;18.30;81.70;;;;;;6222870;23;20016;-64
2023/06/13 01:27:10;;;;;;;8.23;4.40;;;18.30;81.70;;;;;;6222041;23;20288;-63
2023/06/13 01:29:37;;;;;;;8.48;5.65;;;18.30;81.70;;;;;;6221655;23;20318;-64
2023/06/13 01:32:05;;;;;;;12.85;5.00;;;18.30;82.30;;;;;;6223029;23;20016;-63
2023/06/13 01:34:32;;;;;;;9.15;5.68;;;18.30;82.90;;;;;;6220580;23;20021;-64
2023/06/13 01:36:58;;;;;;;7.45;4.85;;;18.30;82.30;;;;;;6222376;23;20070;-63
2023/06/13 01:39:24;;;;;;;8.55;5.15;;;18.20;82.50;;;;;;6220739;23;20062;-64
2023/06/13 01:41:51;;;;;;;6.70;5.03;;;18.10;82.30;;;;;;6222667;23;20453;-64
2023/06/13 01:44:18;;;;;;;8.25;5.20;;;18.10;82.50;;;;;;6222133;23;20012;-64
2023/06/13 01:47:07;;;;;;;8.77;5.07;;;18.10;83.00;;;;;;6221584;23;20385;-63
2023/06/13 01:50:03;;;;;;;5.90;4.38;;;18.00;83.10;;;;;;6222509;23;20025;-64
2023/06/13 01:52:41;;;;;;;6.30;4.60;;;18.00;83.10;;;;;;6220817;23;20052;-64
2023/06/13 01:55:26;;;;;;;7.75;5.45;;;18.00;82.90;;;;;;6221686;23;20027;-64
2023/06/13 01:58:02;;;;;;;9.55;5.40;;;17.90;83.00;;;;;;6222181;23;20461;-63
2023/06/13 02:00:31;;;;;;;9.85;5.30;;;17.90;83.00;;;;;;6220725;23;20043;-63
2023/06/13 02:02:57;;;;;;;8.15;4.93;;;17.90;83.20;;;;;;6222387;23;20020;-65
2023/06/13 02:05:26;;;;;;;10.18;5.55;;;17.90;83.30;;;;;;6220657;23;20074;-64
2023/06/13 02:07:53;;;;;;;10.63;5.65;;;17.80;83.40;;;;;;6221720;23;20024;-64
2023/06/13 02:10:19;;;;;;;9.18;4.30;;;17.80;83.60;;;;;;6222523;23;20056;-64
2023/06/13 02:12:46;;;;;;;8.45;4.80;;;17.80;83.70;;;;;;6220291;23;20020;-64
2023/06/13 02:15:12;;;;;;;14.65;5.70;;;17.80;83.90;;;;;;6222198;23;20023;-63
2023/06/13 02:17:38;;;;;;;11.05;5.78;;;17.70;84.00;;;;;;6220374;23;20016;-64
2023/06/13 02:20:05;;;;;;;9.07;5.55;;;17.70;84.10;;;;;;6221858;23;20021;-64
2023/06/13 02:22:33;;;;;;;8.40;4.95;;;17.60;84.10;;;;;;6220960;23;20378;-63
2023/06/13 02:24:59;;;;;;;9.75;4.43;;;17.60;84.50;;;;;;6221574;23;20044;-65
2023/06/13 02:27:26;;;;;;;6.63;4.60;;;17.60;84.40;;;;;;6220346;23;20024;-64
2023/06/13 02:29:53;;;;;;;7.78;5.03;;;17.60;84.40;;;;;;6220376;23;20088;-63
2023/06/13 02:32:18;;;;;;;8.02;4.13;;;17.50;84.30;;;;;;6222183;23;20021;-64
2023/06/13 02:34:44;;;;;;;8.52;4.90;;;17.50;84.70;;;;;;6220002;23;20091;-64
2023/06/13 02:37:10;;;;;;;7.50;4.90;;;17.50;84.80;;;;;;6222144;23;20088;-64
2023/06/13 02:39:36;;;;;;;10.32;5.32;;;17.40;84.90;;;;;;6220789;23;20024;-64
2023/06/13 02:42:02;;;;;;;7.72;4.72;;;17.40;85.00;;;;;;6221822;23;20096;-64
2023/06/13 02:44:28;;;;;;;6.68;5.38;;;17.30;85.40;;;;;;6222112;23;20017;-64
2023/06/13 02:46:53;;;;;;;7.28;4.60;;;17.40;85.30;;;;;;6220988;23;20028;-65
2023/06/13 02:49:19;;;;;;;7.88;4.32;;;17.30;85.20;;;;;;6221732;23;20333;-64
2023/06/13 02:51:45;;;;;;;8.00;4.50;;;17.30;85.50;;;;;;6220111;23;20017;-64
2023/06/13 02:54:11;;;;;;;10.77;4.22;;;17.20;85.50;;;;;;6222216;23;20020;-64
2023/06/13 02:56:38;;;;;;;9.15;4.55;;;17.30;85.40;;;;;;6220567;23;20147;-64
2023/06/13 02:59:04;;;;;;;8.77;4.97;;;17.20;86.40;;;;;;6221870;23;20032;-64
2023/06/13 03:01:36;;;;;;;6.63;4.72;;;17.10;86.10;;;;;;6222348;23;20024;-64
2023/06/13 03:04:02;;;;;;;7.60;4.40;;;17.10;86.30;;;;;;6220552;23;20017;-64
2023/06/13 03:06:30;;;;;;;6.55;4.10;;;17.10;86.60;;;;;;6222260;23;20036;-65
2023/06/13 03:08:58;;;;;;;9.48;4.97;;;17.10;86.70;;;;;;6220457;23;20024;-64
2023/06/13 03:11:25;;;;;;;16.92;4.47;;;17.00;88.50;;;;;;6221937;23;20017;-64
2023/06/13 03:13:51;;;;;;;5.00;4.05;;;17.00;87.20;;;;;;6220260;23;20094;-65
2023/06/13 03:16:17;;;;;;;7.30;4.43;;;17.00;87.40;;;;;;6222429;23;20044;-63
2023/06/13 03:18:43;;;;;;;7.00;4.15;;;17.00;88.10;;;;;;6223413;23;20024;-64
2023/06/13 03:21:09;;;;;;;6.32;4.07;;;16.80;88.10;;;;;;6222537;23;20016;-64
2023/06/13 03:23:35;;;;;;;7.78;4.70;;;16.90;88.60;;;;;;6223877;23;20078;-64
2023/06/13 03:26:03;;;;;;;6.22;4.30;;;16.90;88.50;;;;;;6222152;23;20020;-64
2023/06/13 03:28:28;;;;;;;6.03;4.45;;;16.80;89.20;;;;;;6223726;23;20040;-64
2023/06/13 03:30:54;;;;;;;6.57;4.63;;;16.80;88.70;;;;;;6222041;23;20367;-64
2023/06/13 03:33:22;;;;;;;6.38;4.22;;;16.80;88.10;;;;;;6223277;23;20088;-65
2023/06/13 03:35:47;;;;;;;7.15;4.60;;;16.90;88.30;;;;;;6223293;23;20536;-64
2023/06/13 03:38:13;;;;;;;7.47;4.72;;;16.90;88.50;;;;;;6222406;23;20020;-64
2023/06/13 03:40:39;;;;;;;6.18;4.57;;;16.90;88.00;;;;;;6224011;23;20032;-64
2023/06/13 03:43:05;;;;;;;5.88;4.00;;;16.80;89.80;;;;;;6221384;23;20013;-64
2023/06/13 03:45:30;;;;;;;9.15;4.70;;;16.90;88.90;;;;;;6223544;23;20021;-64
2023/06/13 03:47:56;;;;;;;14.40;4.47;;;16.80;88.60;;;;;;6221370;23;20032;-64
2023/06/13 03:50:22;;;;;;;5.80;4.40;;;16.80;89.50;;;;;;6223665;23;20051;-63
2023/06/13 03:52:48;;;;;;;9.05;4.43;;;16.80;89.40;;;;;;6223047;23;20071;-64
2023/06/13 03:55:13;;;;;;;8.13;4.82;;;16.90;88.80;;;;;;6222550;23;20342;-64
2023/06/13 03:57:40;;;;;;;6.50;4.68;;;16.90;88.50;;;;;;6223422;23;20072;-65
2023/06/13 04:00:13;;;;;;;6.90;4.07;;;17.00;88.50;;;;;;6221924;23;20016;-64
2023/06/13 04:02:39;;;;;;;5.68;3.97;;;17.00;88.60;;;;;;6223602;23;20619;-64
2023/06/13 04:05:06;;;;;;;5.68;4.38;;;17.10;88.20;;;;;;6221854;23;20070;-64
2023/06/13 04:07:38;;;;;;;9.27;4.57;;;17.20;88.30;;;;;;6222219;23;20095;-64
2023/06/13 04:10:05;;;;;;;5.70;4.40;;;17.20;88.20;;;;;;6223473;23;20075;-64
2023/06/13 04:12:31;;;;;;;7.28;4.18;;;17.20;88.40;;;;;;6221871;23;20016;-63
2023/06/13 04:14:57;;;;;;;6.13;4.30;;;17.20;88.30;;;;;;6223396;23;20074;-63
2023/06/13 04:17:23;;;;;;;6.38;4.40;;;17.30;88.80;;;;;;6235862;23;20019;-64
2023/06/13 04:19:49;;;;;;;8.20;3.85;;;17.30;88.50;;;;;;6253810;23;20020;-64
2023/06/13 04:22:16;;;;;;;6.05;4.28;;;17.40;88.50;;;;;;6252146;22;20023;-64
2023/06/13 04:24:46;;;;;;;8.07;4.15;;;17.40;88.40;;;;;;6253861;23;20048;-63
2023/06/13 04:27:13;;;;;;;6.05;4.03;;;17.50;88.60;;;;;;6253029;22;20341;-64
2023/06/13 04:29:42;;;;;;;7.07;4.20;;;17.50;88.60;;;;;;6252557;22;20012;-63
2023/06/13 04:32:17;;;;;;;7.75;4.80;;;17.60;88.60;;;;;;6253518;22;20015;-63
2023/06/13 04:34:52;;;;;;;7.13;4.10;;;17.60;88.80;;;;;;6252090;22;20020;-64
2023/06/13 04:37:23;;;;;;;5.32;4.32;;;17.60;88.70;;;;;;6254109;22;20034;-64
2023/06/13 04:39:51;;;;;;;5.63;4.57;;;17.70;88.40;;;;;;6252989;22;20020;-64
2023/06/13 04:42:24;;;;;;;7.00;3.90;;;17.80;88.60;;;;;;6253012;22;20047;-64
2023/06/13 04:44:56;;;;;;;5.43;4.07;;;17.80;88.70;;;;;;6253769;22;20054;-63
2023/06/13 04:47:23;;;;;;;7.07;4.03;;;18.00;88.40;;;;;;6251870;22;20020;-64
2023/06/13 04:49:51;;;;;;;8.70;4.35;;;18.10;88.20;;;;;;6253964;22;20536;-64
2023/06/13 04:52:18;;;;;;;10.13;4.22;;;18.20;88.20;;;;;;6251799;22;20024;-64
2023/06/13 04:54:45;;;;;;;8.27;4.55;;;18.20;88.00;;;;;;6253169;22;20027;-63
2023/06/13 04:57:12;;;;;;;8.13;3.95;;;18.40;87.60;;;;;;6252930;22;20055;-64
2023/06/13 04:59:40;;;;;;;8.35;4.03;;;18.60;87.50;;;;;;6251565;22;20055;-64
2023/06/13 05:02:06;;;;;;;6.18;3.58;;;18.50;87.70;;;;;;6253631;22;20016;-64
2023/06/13 05:04:31;;;;;;;5.40;3.78;;;18.70;87.50;;;;;;6251414;23;20398;-63
2023/06/13 05:06:59;;;;;;;6.70;3.63;;;18.80;87.10;;;;;;6253025;23;20023;-64
2023/06/13 05:09:25;;;;;;;4.68;3.30;;;18.90;87.10;;;;;;6251614;22;20083;-64
2023/06/13 05:11:51;;;;;;;7.00;3.60;;;18.90;87.00;;;;;;6252983;22;20020;-63
2023/06/13 05:14:19;;;;;;;5.85;3.72;;;19.00;86.30;;;;;;6252729;22;20020;-63
2023/06/13 05:16:47;;;;;;;5.65;3.60;;;19.20;86.30;;;;;;6251708;22;20063;-63
2023/06/13 05:19:13;;;;;;;5.93;3.83;;;19.20;86.30;;;;;;6253313;22;20091;-64
2023/06/13 05:21:39;;;;;;;6.10;4.07;;;19.40;85.50;;;;;;6251255;22;20024;-64
2023/06/13 05:24:07;;;;;;;4.75;3.42;;;19.40;86.10;;;;;;6253129;22;20338;-64
2023/06/13 05:26:33;;;;;;;4.47;3.10;;;19.40;86.00;;;;;;6251155;22;20024;-64
2023/06/13 05:28:59;;;;;;;4.25;3.25;;;19.50;85.80;;;;;;6252538;22;20488;-64
2023/06/13 05:31:24;;;;;;;5.72;3.42;;;19.60;85.60;;;;;;6252462;23;20035;-64
2023/06/13 05:33:50;;;;;;;7.43;3.72;;;19.70;85.50;;;;;;6251517;23;20043;-63
2023/06/13 05:36:17;;;;;;;6.63;3.30;;;19.70;84.80;;;;;;6252765;23;20016;-64
2023/06/13 05:38:46;;;;;;;4.10;3.10;;;19.90;85.00;;;;;;6250461;22;20023;-64
2023/06/13 05:41:12;;;;;;;9.70;3.22;;;19.90;85.20;;;;;;6252587;22;20086;-64
2023/06/13 05:43:38;;;;;;;5.65;3.53;;;20.00;85.20;;;;;;6250520;22;20024;-64
2023/06/13 05:46:04;;;;;;;4.97;3.28;;;20.00;85.00;;;;;;6252565;22;20077;-64
2023/06/13 05:48:33;;;;;;;9.20;3.47;;;20.00;84.80;;;;;;6251880;22;20016;-64
2023/06/13 05:50:58;;;;;;;4.88;3.30;;;20.00;83.80;;;;;;6251375;23;20666;-64
2023/06/13 05:53:24;;;;;;;3.95;2.85;;;20.20;84.10;;;;;;6252614;22;20020;-64
2023/06/13 05:55:50;;;;;;;8.20;3.63;;;20.20;84.50;;;;;;6250738;22;20024;-64
2023/06/13 05:58:16;;;;;;;3.28;2.97;;;20.40;84.50;;;;;;6250345;23;20072;-64
2023/06/13 06:00:42;;;;;;;5.38;3.05;;;20.30;84.20;;;;;;6250719;23;20024;-68
2023/06/13 06:03:08;;;;;;;5.43;3.38;;;20.10;84.60;;;;;;6250756;23;20119;-68
2023/06/13 06:05:34;;;;;;;4.63;2.97;;;20.00;84.30;;;;;;6249653;23;20353;-67
2023/06/13 06:08:00;;;;;;;4.38;3.28;;;19.80;84.10;;;;;;6251455;23;20020;-67
2023/06/13 06:10:25;;;;;;;8.38;3.78;;;19.80;84.50;;;;;;6250864;23;20024;-68
2023/06/13 06:12:51;;;;;;;5.18;3.55;;;19.70;84.20;;;;;;6248227;23;20076;-68
2023/06/13 06:15:17;;;;;;;6.20;3.40;;;19.70;83.90;;;;;;6251143;22;20020;-69
2023/06/13 06:17:42;;;;;;;3.83;3.05;;;19.70;84.00;;;;;;6249630;23;20028;-69
2023/06/13 06:20:09;;;;;;;3.40;2.90;;;19.70;84.10;;;;;;6250167;23;20512;-68
2023/06/13 06:22:39;;;;;;;4.57;3.03;;;19.70;84.10;;;;;;6249147;23;20449;-68
2023/06/13 06:25:05;;;;;;;5.20;3.10;;;19.70;83.90;;;;;;6251139;23;20023;-68
2023/06/13 06:27:31;;;;;;;3.70;2.90;;;19.80;84.10;;;;;;6250467;23;20095;-68
2023/06/13 06:29:57;;;;;;;4.43;3.20;;;19.80;83.40;;;;;;6250625;23;20027;-67
2023/06/13 06:32:23;;;;;;;5.15;3.50;;;19.70;83.80;;;;;;6250529;23;20016;-68
2023/06/13 06:34:48;;;;;;;3.97;2.80;;;19.80;84.40;;;;;;6250523;22;20034;-68
2023/06/13 06:37:14;;;;;;;5.53;3.10;;;19.80;84.30;;;;;;6252492;23;20044;-67
2023/06/13 06:39:40;;;;;;;4.45;3.35;;;19.90;83.90;;;;;;6251050;22;20020;-67
2023/06/13 06:42:08;;;;;;;4.22;3.22;;;19.90;85.10;;;;;;6249669;23;20016;-68
2023/06/13 06:44:34;;;;;;;7.07;3.15;;;20.10;84.50;;;;;;6251916;23;20024;-68
2023/06/13 06:47:00;;;;;;;6.28;2.92;;;20.20;85.00;;;;;;6248569;23;20081;-67
2023/06/13 06:49:26;;;;;;;5.80;3.03;;;20.10;84.50;;;;;;6252595;22;20020;-68
2023/06/13 06:51:52;;;;;;;6.30;3.55;;;20.20;85.30;;;;;;6250362;23;20020;-68
2023/06/13 06:54:17;;;;;;;6.20;3.42;;;20.20;85.20;;;;;;6250781;23;20012;-67
2023/06/13 06:56:43;;;;;;;6.90;3.72;;;20.30;84.50;;;;;;6250628;23;20051;-67
2023/06/13 06:59:09;;;;;;;5.75;3.30;;;20.50;84.00;;;;;;6250026;23;20027;-68
2023/06/13 07:01:35;;;;;;;7.15;4.78;;;20.60;84.40;;;;;;6252234;23;20026;-68
2023/06/13 07:04:02;;;;;;;5.60;3.63;;;20.60;83.80;;;;;;6249305;23;20047;-68
2023/06/13 07:06:29;;;;;;;5.57;3.30;;;20.50;83.60;;;;;;6252938;22;20052;-68
2023/06/13 07:08:55;;;;;;;7.15;4.05;;;20.50;83.70;;;;;;6248851;23;20092;-68
2023/06/13 07:11:21;;;;;;;9.02;3.65;;;20.50;83.40;;;;;;6250697;23;20024;-68
2023/06/13 07:13:47;;;;;;;5.13;3.42;;;20.40;83.10;;;;;;6250147;22;20127;-67
2023/06/13 07:16:13;;;;;;;4.55;3.20;;;20.50;83.60;;;;;;6251725;22;20042;-67
2023/06/13 07:18:39;;;;;;;4.95;3.47;;;20.60;84.70;;;;;;6251864;23;20112;-64
2023/06/13 07:21:05;;;;;;;5.88;3.50;;;20.60;83.50;;;;;;6250507;22;20406;-64
2023/06/13 07:23:30;;;;;;;5.22;4.10;;;20.90;83.80;;;;;;6251647;22;20020;-64
2023/06/13 07:25:56;;;;;;;5.03;3.00;;;21.10;84.10;;;;;;6249355;23;20051;-64
2023/06/13 07:28:22;;;;;;;6.88;3.70;;;21.10;82.80;;;;;;6252177;23;20024;-64
2023/06/13 07:30:50;;;;;;;5.85;3.47;;;21.10;82.90;;;;;;6250568;23;20106;-64
2023/06/13 07:33:16;;;;;;;9.50;4.20;;;21.20;83.00;;;;;;6252198;23;20016;-64
2023/06/13 07:35:42;;;;;;;5.70;3.80;;;21.20;83.00;;;;;;6251950;22;20027;-64
2023/06/13 07:38:07;;;;;;;5.18;3.70;;;21.20;83.20;;;;;;6250885;23;20048;-64
2023/06/13 07:40:33;;;;;;;7.57;4.00;;;21.30;82.20;;;;;;6252044;23;20491;-64
2023/06/13 07:42:59;;;;;;;8.23;3.97;;;21.40;82.40;;;;;;6249823;23;20028;-65
2023/06/13 07:45:24;;;;;;;6.13;3.95;;;21.50;82.40;;;;;;6252073;23;20024;-64
2023/06/13 07:47:50;;;;;;;5.45;3.90;;;21.60;82.20;;;;;;6250018;23;20020;-64
2023/06/13 07:50:16;;;;;;;4.25;3.85;;;21.60;81.60;;;;;;6251594;22;20046;-64
2023/06/13 07:52:42;;;;;;;7.32;3.63;;;21.80;82.00;;;;;;6251406;23;20028;-64
2023/06/13 07:55:08;;;;;;;9.32;4.03;;;21.70;81.90;;;;;;6250712;23;20125;-64
2023/06/13 07:57:34;;;;;;;8.85;3.78;;;21.80;81.80;;;;;;6252207;23;20054;-64
2023/06/13 08:00:00;;;;;;;7.15;4.10;;;21.90;82.20;;;;;;6249870;22;20017;-64
2023/06/13 08:02:26;;;;;;;8.88;3.83;;;22.00;81.30;;;;;;6252723;23;20020;-64
2023/06/13 08:04:52;;;;;;;6.15;3.80;;;22.00;81.50;;;;;;6252037;22;20047;-64
2023/06/13 08:07:18;;;;;;;7.32;4.57;;;22.10;81.90;;;;;;6253782;23;20095;-64
2023/06/13 08:09:44;;;;;;;8.35;3.78;;;22.10;81.30;;;;;;6251114;23;20020;-64
2023/06/13 08:12:10;;;;;;;4.78;3.53;;;22.00;80.80;;;;;;6252508;23;20070;-64
2023/06/13 08:14:36;;;;;;;4.38;3.33;;;22.10;81.10;;;;;;6254201;22;20016;-64
2023/06/13 08:17:02;;;;;;;5.90;3.40;;;22.30;81.30;;;;;;6251947;22;20051;-65
2023/06/13 08:19:28;;;;;;;5.10;3.53;;;22.30;80.40;;;;;;6253925;23;20028;-64
2023/06/13 08:21:53;;;;;;;7.60;3.28;;;22.30;80.20;;;;;;6251798;23;20020;-65
2023/06/13 08:24:19;;;;;;;7.22;3.58;;;22.40;80.50;;;;;;6253886;23;20019;-64
2023/06/13 08:26:45;;;;;;;7.75;3.22;;;22.60;80.80;;;;;;6252744;22;20023;-65
2023/06/13 08:29:13;;;;;;;5.32;3.20;;;22.70;80.60;;;;;;6251978;22;20016;-65
2023/06/13 08:31:40;;;;;;;4.95;3.08;;;22.80;80.70;;;;;;6253701;22;20115;-65
2023/06/13 08:34:06;;;;;;;8.77;3.63;;;22.70;80.00;;;;;;6252127;22;20027;-65
2023/06/13 08:36:35;;;;;;;6.68;3.17;;;22.90;80.20;;;;;;6253615;23;20019;-64
2023/06/13 08:39:04;;;;;;;4.15;2.90;;;23.00;80.00;;;;;;6252310;22;20608;-65
2023/06/13 08:41:30;;;;;;;3.22;2.63;;;23.10;80.20;;;;;;6253923;22;20020;-65
2023/06/13 08:43:58;;;;;;;5.45;3.30;;;23.10;79.50;;;;;;6253124;22;20047;-64
2023/06/13 08:46:24;;;;;;;5.25;2.80;;;23.20;79.30;;;;;;6252835;22;20072;-65
2023/06/13 08:48:50;;;;;;;4.97;3.17;;;23.40;79.60;;;;;;6253913;22;20122;-64
2023/06/13 08:51:22;;;;;;;7.65;3.03;;;23.60;79.00;;;;;;6251720;23;20020;-65
2023/06/13 08:53:51;;;;;;;6.28;3.00;;;23.30;77.10;;;;;;6252106;23;20096;-65
2023/06/13 08:56:23;;;;;;;5.13;3.03;;;23.50;78.70;;;;;;6251848;22;20020;-65
2023/06/13 08:58:53;;;;;;;;;;;23.50;78.10;;;;;;6254151;22;20469;-64
2023/06/13 09:01:21;;;;;;;5.60;3.03;;;23.60;78.00;;;;;;6250826;22;19965;-65
2023/06/13 09:03:47;;;;;;;3.65;2.88;;;23.80;79.20;;;;;;6251208;22;20027;-65
2023/06/13 09:06:13;;;;;;;5.22;2.83;;;23.60;75.90;;;;;;6250836;22;20020;-64
2023/06/13 09:08:41;;;;;;;3.75;2.75;;;23.70;77.50;;;;;;6250660;22;20093;-64
2023/06/13 09:11:06;;;;;;;7.60;3.15;;;23.80;77.50;;;;;;6251288;22;20019;-65
2023/06/13 09:13:34;;;;;;;4.78;3.00;;;23.90;77.80;;;;;;6248064;23;20036;-64
2023/06/13 09:16:00;;;;;;;4.43;3.17;;;24.00;78.80;;;;;;6251836;22;20047;-64
2023/06/13 09:18:27;;;;;;;5.22;3.15;;;24.20;79.20;;;;;;6250588;22;20110;-64
2023/06/13 09:20:53;;;;;;;4.68;2.67;;;24.10;78.10;;;;;;6250708;22;20083;-65
2023/06/13 09:23:20;;;;;;;5.68;3.10;;;24.10;77.20;;;;;;6250821;22;20043;-64
2023/06/13 09:25:47;;;;;;;8.23;3.03;;;24.30;77.70;;;;;;6250389;22;20020;-64
2023/06/13 09:28:42;;;;;;;5.75;2.80;;;24.30;77.00;;;;;;6251097;22;20012;-65
2023/06/13 09:31:11;;;;;;;4.43;2.40;;;24.30;74.70;;;;;;6250284;22;20018;-64
2023/06/13 09:33:37;;;;;;;5.28;2.97;;;24.40;76.60;;;;;;6250809;22;20075;-65
2023/06/13 09:36:05;;;;;;;4.85;3.08;;;24.40;76.40;;;;;;6250535;22;20027;-65
2023/06/13 09:38:34;;;;;;;4.05;2.67;;;24.40;74.60;;;;;;6250046;22;20028;-65
2023/06/13 09:41:03;;;;;;;4.97;3.20;;;24.40;74.80;;;;;;6250842;22;20020;-64
2023/06/13 09:43:29;;;;;;;5.57;2.85;;;24.40;75.60;;;;;;6249691;22;20031;-65
2023/06/13 09:45:55;;;;;;;5.13;2.88;;;24.50;75.90;;;;;;6250746;22;20334;-65
2023/06/13 09:48:22;;;;;;;9.95;3.13;;;24.60;76.80;;;;;;6249794;22;20090;-64
2023/06/13 09:50:50;;;;;;;4.53;3.22;;;24.70;74.60;;;;;;6249837;22;20020;-64
2023/06/13 09:53:16;;;;;;;5.13;2.83;;;24.60;73.00;;;;;;6248763;23;20016;-64
2023/06/13 09:55:42;;;;;;;6.80;3.13;;;24.60;75.00;;;;;;6249855;22;20016;-65
2023/06/13 09:58:08;;;;;;;3.75;3.05;;;24.80;75.80;;;;;;6250348;23;20016;-64
2023/06/13 10:00:34;;;;;;;5.40;2.90;;;24.70;74.60;;;;;;6247013;22;20024;-72
2023/06/13 10:03:02;;;;;;;4.53;3.35;;;24.60;72.80;;;;;;6248180;23;20035;-69
2023/06/13 10:05:28;;;;;;;3.53;2.90;;;24.40;72.70;;;;;;6249147;22;20020;-68
2023/06/13 10:07:55;;;;;;;4.32;2.55;;;24.30;72.90;;;;;;6250071;22;20422;-67
2023/06/13 10:10:21;;;;;;;6.03;2.53;;;24.30;74.20;;;;;;6250382;22;20075;-65
2023/06/13 10:12:55;;;;;;;5.57;2.80;;;24.40;73.80;;;;;;6249580;22;20028;-65
2023/06/13 10:15:38;;;;;;;5.70;3.17;;;24.70;73.90;;;;;;6250550;22;20023;-64
2023/06/13 10:18:10;;;;;;;8.10;3.20;;;24.80;71.90;;;;;;6249580;22;20436;-65
2023/06/13 10:20:37;;;;;;;;;;;24.80;72.20;;;;;;6251070;22;20054;-65
2023/06/13 10:23:05;;;;;;;3.53;2.53;;;24.90;73.30;;;;;;6250399;22;19967;-67
2023/06/13 10:25:33;;;;;;;3.78;2.90;;;24.90;71.70;;;;;;6249373;22;20027;-66
2023/06/13 10:28:06;;;;;;;3.45;2.55;;;24.90;72.10;;;;;;6250371;22;20020;-67
2023/06/13 10:30:51;;;;;;;6.20;3.40;;;25.00;72.90;;;;;;6249552;22;20020;-67
2023/06/13 10:33:35;;;;;;;4.35;3.00;;;25.10;71.20;;;;;;6250012;22;20024;-67
2023/06/13 10:36:16;;;;;;;5.68;2.92;;;25.30;71.30;;;;;;6250335;22;20023;-67
2023/06/13 10:38:54;;;;;;;10.48;3.08;;;25.40;71.60;;;;;;6249628;22;20035;-67
2023/06/13 10:41:45;;;;;;;5.10;2.65;;;25.40;72.20;;;;;;6250359;22;20044;-67
2023/06/13 10:44:45;;;;;;;5.05;3.08;;;25.40;71.70;;;;;;6250009;23;20426;-67
2023/06/13 10:47:24;;;;;;;4.45;3.00;;;25.40;67.50;;;;;;6232731;23;20024;-67
2023/06/13 10:49:52;;;;;;;4.85;2.90;;;25.40;70.70;;;;;;6250683;22;20059;-67
2023/06/13 10:52:20;;;;;;;4.57;3.22;;;25.50;70.70;;;;;;6249352;22;20023;-67
2023/06/13 10:54:58;;;;;;;5.68;2.83;;;25.50;69.60;;;;;;6250138;22;20032;-67
2023/06/13 10:57:50;;;;;;;9.30;3.67;;;25.50;68.50;;;;;;6250495;22;20028;-67
2023/06/13 11:00:37;;;;;;;4.63;3.10;;;25.40;68.00;;;;;;6249699;22;20024;-66
2023/06/13 11:03:13;;;;;;;4.78;3.28;;;25.60;70.00;;;;;;6250584;22;20037;-67
2023/06/13 11:05:45;;;;;;;5.35;3.42;;;25.50;68.00;;;;;;6249951;23;20067;-67
2023/06/13 11:08:21;;;;;;;9.02;3.85;;;25.70;70.00;;;;;;6249633;22;20028;-68
2023/06/13 11:10:49;;;;;;;7.63;3.08;;;25.60;68.40;;;;;;6250502;22;20028;-67
2023/06/13 11:13:26;;;;;;;5.18;3.58;;;25.60;68.70;;;;;;6249476;22;20024;-72
2023/06/13 11:15:56;;;;;;;4.88;3.65;;;25.70;66.60;;;;;;6250392;22;20024;-67
2023/06/13 11:18:23;;;;;;;7.07;3.60;;;25.80;67.90;;;;;;6250095;22;20334;-66
2023/06/13 11:20:59;;;;;;;6.25;2.90;;;26.00;68.50;;;;;;6250195;22;20616;-66
2023/06/13 11:23:47;;;;;;;5.25;2.95;;;26.10;68.80;;;;;;6250084;22;20016;-66
2023/06/13 11:26:19;;;;;;;5.35;3.25;;;26.00;68.00;;;;;;6249479;22;20020;-67
2023/06/13 11:28:50;;;;;;;5.45;3.92;;;25.90;68.00;;;;;;6251108;22;20016;-66
2023/06/13 11:31:16;;;;;;;7.07;3.13;;;25.70;67.00;;;;;;6249788;22;20443;-67
2023/06/13 11:33:50;;;;;;;6.63;3.17;;;25.80;68.30;;;;;;6250288;22;20047;-67
2023/06/13 11:36:17;;;;;;;4.35;3.03;;;25.70;68.00;;;;;;6250739;22;20082;-67
2023/06/13 11:38:58;;;;;;;4.72;3.35;;;25.90;68.40;;;;;;6251874;22;20051;-66
2023/06/13 11:41:23;;;;;;;5.47;3.00;;;26.00;67.30;;;;;;6253262;22;20461;-66
2023/06/13 11:43:49;;;;;;;5.18;2.97;;;26.00;67.60;;;;;;6251785;23;20027;-67
2023/06/13 11:46:15;;;;;;;4.32;3.10;;;26.00;68.00;;;;;;6252325;22;20055;-67
2023/06/13 11:48:42;;;;;;;5.25;2.72;;;26.00;68.30;;;;;;6252508;22;20020;-66
2023/06/13 11:51:13;;;;;;;5.35;3.25;;;26.00;68.20;;;;;;6250078;23;20043;-67
2023/06/13 11:53:52;;;;;;;5.07;3.08;;;25.80;67.10;;;;;;6252276;22;20055;-67
2023/06/13 11:56:23;;;;;;;4.47;2.80;;;25.90;67.60;;;;;;6251749;22;20024;-66
2023/06/13 11:58:50;;;;;;;4.82;2.90;;;25.80;68.20;;;;;;6252479;22;20095;-67
2023/06/13 12:01:17;;;;;;;5.10;2.85;;;25.90;69.20;;;;;;6251653;22;20020;-67
2023/06/13 12:03:47;;;;;;;5.53;2.88;;;25.90;68.10;;;;;;6252002;22;20016;-67
2023/06/13 12:06:14;;;;;;;5.35;2.78;;;25.90;68.20;;;;;;6251364;22;20024;-67
2023/06/13 12:08:47;;;;;;;4.10;2.90;;;25.90;68.20;;;;;;6249821;23;20018;-67
2023/06/13 12:11:17;;;;;;;4.30;3.10;;;26.00;68.50;;;;;;6252514;22;20352;-67
2023/06/13 12:13:57;;;;;;;5.60;3.28;;;26.10;67.30;;;;;;6250936;22;20432;-67
2023/06/13 12:16:33;;;;;;;6.00;3.30;;;26.10;66.80;;;;;;6252010;22;20119;-66
2023/06/13 12:19:00;;;;;;;6.30;3.22;;;26.30;67.60;;;;;;6252062;22;20067;-66
2023/06/13 12:21:31;;;;;;;3.72;3.10;;;26.30;67.50;;;;;;6251228;22;20034;-67
2023/06/13 12:23:59;;;;;;;7.67;3.17;;;26.20;68.40;;;;;;6252276;22;20023;-67
2023/06/13 12:26:26;;;;;;;5.05;3.47;;;26.20;68.10;;;;;;6250978;22;20106;-66
2023/06/13 12:28:55;;;;;;;10.95;3.35;;;26.20;68.50;;;;;;6251715;22;20047;-67
2023/06/13 12:31:38;;;;;;;3.97;2.95;;;26.10;68.50;;;;;;6251726;22;20099;-67
2023/06/13 12:34:08;;;;;;;4.65;3.25;;;26.20;67.50;;;;;;6251055;23;20079;-67
2023/06/13 12:36:42;;;;;;;5.03;2.70;;;26.20;68.20;;;;;;6251726;22;20878;-66
2023/06/13 12:39:09;;;;;;;5.18;3.05;;;26.20;67.90;;;;;;6250717;22;20017;-67
2023/06/13 12:41:39;;;;;;;6.10;3.25;;;26.20;66.90;;;;;;6252145;22;20044;-67
2023/06/13 12:44:06;;;;;;;6.05;3.28;;;26.10;67.30;;;;;;6250690;22;20044;-66
2023/06/13 12:46:38;;;;;;;4.03;3.03;;;26.20;67.90;;;;;;6251216;22;20020;-66
2023/06/13 12:49:11;;;;;;;4.38;3.00;;;26.30;66.80;;;;;;6251378;22;20047;-67
2023/06/13 12:51:44;;;;;;;5.53;3.13;;;26.30;68.90;;;;;;6250706;22;20044;-67
2023/06/13 12:54:17;;;;;;;6.00;3.08;;;26.50;66.60;;;;;;6251773;22;20042;-66